sensor_id;sensor_type;location;lat;lon;timestamp;noise_LAeq;noise_LA_min;noise_LA_max;noise_LA01;noise_LA95
70077;Laerm;57448;51.490;5.436;2023-04-15T00:00:36;38.33;33.81;45.78;;
70077;Laerm;57448;51.490;5.436;2023-04-15T00:02:37;37.53;33.47;42.40;;
70077;Laerm;57448;51.490;5.436;2023-04-15T00:04:40;38.24;34.26;42.46;;
70077;Laerm;57448;51.490;5.436;2023-04-15T00:06:41;38.59;35.41;43.35;;
70077;Laerm;57448;51.490;5.436;2023-04-15T00:08:42;38.83;35.06;43.64;;
70077;Laerm;57448;51.490;5.436;2023-04-15T00:10:44;37.98;34.21;41.50;;
70077;Laerm;57448;51.490;5.436;2023-04-15T00:12:45;37.75;34.11;44.28;;
70077;Laerm;57448;51.490;5.436;2023-04-15T00:14:47;38.61;34.69;46.27;;
70077;Laerm;57448;51.490;5.436;2023-04-15T00:16:49;39.08;35.01;44.87;;
70077;Laerm;57448;51.490;5.436;2023-04-15T00:18:55;39.51;35.74;44.36;;
70077;Laerm;57448;51.490;5.436;2023-04-15T00:20:57;38.69;35.00;44.29;;
70077;Laerm;57448;51.490;5.436;2023-04-15T00:22:59;40.03;35.18;50.82;;
70077;Laerm;57448;51.490;5.436;2023-04-15T00:25:00;37.89;34.56;42.49;;
70077;Laerm;57448;51.490;5.436;2023-04-15T00:27:02;38.42;34.96;43.90;;
70077;Laerm;57448;51.490;5.436;2023-04-15T00:29:03;39.45;34.46;46.28;;
70077;Laerm;57448;51.490;5.436;2023-04-15T00:31:05;40.87;36.40;49.01;;
70077;Laerm;57448;51.490;5.436;2023-04-15T00:33:06;39.41;35.53;43.60;;
70077;Laerm;57448;51.490;5.436;2023-04-15T00:35:08;39.49;34.59;48.94;;
70077;Laerm;57448;51.490;5.436;2023-04-15T00:37:11;38.05;34.02;45.66;;
70077;Laerm;57448;51.490;5.436;2023-04-15T00:39:12;37.49;33.81;43.92;;
70077;Laerm;57448;51.490;5.436;2023-04-15T00:41:15;38.02;34.47;45.14;;
70077;Laerm;57448;51.490;5.436;2023-04-15T00:43:16;38.84;34.12;48.32;;
70077;Laerm;57448;51.490;5.436;2023-04-15T00:45:18;37.94;33.13;46.46;;
70077;Laerm;57448;51.490;5.436;2023-04-15T00:47:19;40.43;34.09;47.54;;
70077;Laerm;57448;51.490;5.436;2023-04-15T00:49:21;39.38;34.69;45.27;;
70077;Laerm;57448;51.490;5.436;2023-04-15T00:51:23;39.14;34.60;49.11;;
70077;Laerm;57448;51.490;5.436;2023-04-15T00:53:26;38.06;33.44;50.01;;
70077;Laerm;57448;51.490;5.436;2023-04-15T00:55:27;38.58;33.77;51.40;;
70077;Laerm;57448;51.490;5.436;2023-04-15T00:57:29;37.33;33.44;44.68;;
70077;Laerm;57448;51.490;5.436;2023-04-15T00:59:30;39.11;34.37;49.69;;
70077;Laerm;57448;51.490;5.436;2023-04-15T01:01:33;38.03;33.22;44.97;;
70077;Laerm;57448;51.490;5.436;2023-04-15T01:03:35;38.06;33.12;50.35;;
70077;Laerm;57448;51.490;5.436;2023-04-15T01:05:36;40.84;34.23;57.82;;
70077;Laerm;57448;51.490;5.436;2023-04-15T01:07:38;38.33;34.10;45.95;;
70077;Laerm;57448;51.490;5.436;2023-04-15T01:09:41;38.51;33.31;46.68;;
70077;Laerm;57448;51.490;5.436;2023-04-15T01:11:42;37.73;33.66;43.67;;
70077;Laerm;57448;51.490;5.436;2023-04-15T01:13:44;38.69;34.37;47.20;;
70077;Laerm;57448;51.490;5.436;2023-04-15T01:15:46;38.37;34.31;47.71;;
70077;Laerm;57448;51.490;5.436;2023-04-15T01:17:48;38.37;34.27;45.37;;
70077;Laerm;57448;51.490;5.436;2023-04-15T01:19:50;38.24;34.24;43.50;;
70077;Laerm;57448;51.490;5.436;2023-04-15T01:21:51;38.85;35.41;49.80;;
70077;Laerm;57448;51.490;5.436;2023-04-15T01:23:53;41.27;35.69;52.27;;
70077;Laerm;57448;51.490;5.436;2023-04-15T01:25:57;38.19;34.27;43.17;;
70077;Laerm;57448;51.490;5.436;2023-04-15T01:27:59;38.05;33.41;47.19;;
70077;Laerm;57448;51.490;5.436;2023-04-15T01:30:01;38.29;34.90;44.04;;
70077;Laerm;57448;51.490;5.436;2023-04-15T01:32:04;37.36;33.63;43.53;;
70077;Laerm;57448;51.490;5.436;2023-04-15T01:34:05;37.46;33.87;43.94;;
70077;Laerm;57448;51.490;5.436;2023-04-15T01:36:07;36.58;33.04;41.46;;
70077;Laerm;57448;51.490;5.436;2023-04-15T01:38:09;37.04;33.08;42.98;;
70077;Laerm;57448;51.490;5.436;2023-04-15T01:40:11;37.74;34.33;42.49;;
70077;Laerm;57448;51.490;5.436;2023-04-15T01:42:14;37.08;33.95;42.89;;
70077;Laerm;57448;51.490;5.436;2023-04-15T01:44:16;38.33;34.76;44.01;;
70077;Laerm;57448;51.490;5.436;2023-04-15T01:46:17;36.92;33.60;42.41;;
70077;Laerm;57448;51.490;5.436;2023-04-15T01:48:19;36.56;32.98;46.18;;
70077;Laerm;57448;51.490;5.436;2023-04-15T01:50:20;37.98;34.20;42.33;;
70077;Laerm;57448;51.490;5.436;2023-04-15T01:52:21;39.39;35.03;52.62;;
70077;Laerm;57448;51.490;5.436;2023-04-15T01:54:23;38.12;34.24;56.14;;
70077;Laerm;57448;51.490;5.436;2023-04-15T01:56:25;37.60;33.96;44.97;;
70077;Laerm;57448;51.490;5.436;2023-04-15T01:58:27;38.25;33.75;46.09;;
70077;Laerm;57448;51.490;5.436;2023-04-15T02:00:29;38.73;34.50;47.26;;
70077;Laerm;57448;51.490;5.436;2023-04-15T02:02:31;37.79;33.60;44.68;;
70077;Laerm;57448;51.490;5.436;2023-04-15T02:04:33;36.75;32.42;42.18;;
70077;Laerm;57448;51.490;5.436;2023-04-15T02:06:34;38.94;34.64;47.10;;
70077;Laerm;57448;51.490;5.436;2023-04-15T02:08:36;37.54;33.56;43.39;;
70077;Laerm;57448;51.490;5.436;2023-04-15T02:10:37;37.76;33.59;44.90;;
70077;Laerm;57448;51.490;5.436;2023-04-15T02:12:38;36.97;33.07;49.11;;
70077;Laerm;57448;51.490;5.436;2023-04-15T02:14:42;36.62;32.90;44.30;;
70077;Laerm;57448;51.490;5.436;2023-04-15T02:16:43;38.36;34.15;47.28;;
70077;Laerm;57448;51.490;5.436;2023-04-15T02:18:45;38.05;33.20;45.35;;
70077;Laerm;57448;51.490;5.436;2023-04-15T02:20:46;35.97;32.94;43.43;;
70077;Laerm;57448;51.490;5.436;2023-04-15T02:22:48;38.59;34.19;45.07;;
70077;Laerm;57448;51.490;5.436;2023-04-15T02:24:49;38.63;34.64;48.75;;
70077;Laerm;57448;51.490;5.436;2023-04-15T02:26:51;38.37;34.46;45.42;;
70077;Laerm;57448;51.490;5.436;2023-04-15T02:28:52;36.90;33.50;43.92;;
70077;Laerm;57448;51.490;5.436;2023-04-15T02:30:55;37.09;33.03;45.95;;
70077;Laerm;57448;51.490;5.436;2023-04-15T02:32:58;38.64;34.90;44.67;;
70077;Laerm;57448;51.490;5.436;2023-04-15T02:35:01;38.89;35.12;43.76;;
70077;Laerm;57448;51.490;5.436;2023-04-15T02:37:02;37.23;33.34;42.73;;
70077;Laerm;57448;51.490;5.436;2023-04-15T02:39:04;37.07;33.23;43.76;;
70077;Laerm;57448;51.490;5.436;2023-04-15T02:41:06;39.32;35.72;46.07;;
70077;Laerm;57448;51.490;5.436;2023-04-15T02:43:07;39.06;34.97;44.46;;
70077;Laerm;57448;51.490;5.436;2023-04-15T02:45:09;37.79;34.35;43.23;;
70077;Laerm;57448;51.490;5.436;2023-04-15T02:47:12;38.03;34.21;43.73;;
70077;Laerm;57448;51.490;5.436;2023-04-15T02:49:15;38.21;33.90;44.72;;
70077;Laerm;57448;51.490;5.436;2023-04-15T02:51:17;38.31;33.84;44.27;;
70077;Laerm;57448;51.490;5.436;2023-04-15T02:53:19;38.19;34.42;44.91;;
70077;Laerm;57448;51.490;5.436;2023-04-15T02:55:20;38.62;34.75;44.44;;
70077;Laerm;57448;51.490;5.436;2023-04-15T02:57:21;38.53;34.10;45.81;;
70077;Laerm;57448;51.490;5.436;2023-04-15T02:59:23;39.10;34.94;49.56;;
70077;Laerm;57448;51.490;5.436;2023-04-15T03:01:24;39.38;35.01;49.84;;
70077;Laerm;57448;51.490;5.436;2023-04-15T03:03:27;38.84;34.37;44.26;;
70077;Laerm;57448;51.490;5.436;2023-04-15T03:05:29;39.57;35.45;44.15;;
70077;Laerm;57448;51.490;5.436;2023-04-15T03:07:30;40.25;35.03;48.83;;
70077;Laerm;57448;51.490;5.436;2023-04-15T03:09:32;38.16;33.37;44.10;;
70077;Laerm;57448;51.490;5.436;2023-04-15T03:11:34;38.97;35.43;45.17;;
70077;Laerm;57448;51.490;5.436;2023-04-15T03:13:39;39.28;34.73;45.91;;
70077;Laerm;57448;51.490;5.436;2023-04-15T03:15:42;38.79;34.39;45.92;;
70077;Laerm;57448;51.490;5.436;2023-04-15T03:17:43;40.31;35.48;47.36;;
70077;Laerm;57448;51.490;5.436;2023-04-15T03:19:46;39.95;35.69;47.54;;
70077;Laerm;57448;51.490;5.436;2023-04-15T03:21:47;39.80;35.55;48.98;;
70077;Laerm;57448;51.490;5.436;2023-04-15T03:23:49;39.94;36.48;45.34;;
70077;Laerm;57448;51.490;5.436;2023-04-15T03:25:50;40.91;36.84;46.17;;
70077;Laerm;57448;51.490;5.436;2023-04-15T03:27:54;40.45;36.12;49.87;;
70077;Laerm;57448;51.490;5.436;2023-04-15T03:29:56;39.66;35.40;50.73;;
70077;Laerm;57448;51.490;5.436;2023-04-15T03:31:57;40.50;36.76;46.95;;
70077;Laerm;57448;51.490;5.436;2023-04-15T03:33:58;40.38;37.02;44.98;;
70077;Laerm;57448;51.490;5.436;2023-04-15T03:36:01;40.88;36.76;47.71;;
70077;Laerm;57448;51.490;5.436;2023-04-15T03:38:02;40.70;36.45;46.31;;
70077;Laerm;57448;51.490;5.436;2023-04-15T03:40:04;41.87;36.99;49.69;;
70077;Laerm;57448;51.490;5.436;2023-04-15T03:42:06;44.37;38.31;53.16;;
70077;Laerm;57448;51.490;5.436;2023-04-15T03:44:07;42.30;37.61;49.76;;
70077;Laerm;57448;51.490;5.436;2023-04-15T03:46:09;41.42;37.50;48.11;;
70077;Laerm;57448;51.490;5.436;2023-04-15T03:48:10;42.40;37.82;51.25;;
70077;Laerm;57448;51.490;5.436;2023-04-15T03:50:11;44.15;38.19;56.51;;
70077;Laerm;57448;51.490;5.436;2023-04-15T03:52:14;46.03;38.07;64.85;;
70077;Laerm;57448;51.490;5.436;2023-04-15T03:54:15;45.28;38.06;56.98;;
70077;Laerm;57448;51.490;5.436;2023-04-15T03:56:17;45.27;38.90;57.77;;
70077;Laerm;57448;51.490;5.436;2023-04-15T03:58:18;45.87;39.41;58.29;;
70077;Laerm;57448;51.490;5.436;2023-04-15T04:00:20;53.98;40.38;67.24;;
70077;Laerm;57448;51.490;5.436;2023-04-15T04:02:21;51.25;41.20;64.53;;
70077;Laerm;57448;51.490;5.436;2023-04-15T04:04:23;51.79;39.75;62.21;;
70077;Laerm;57448;51.490;5.436;2023-04-15T04:06:24;52.84;38.90;64.35;;
70077;Laerm;57448;51.490;5.436;2023-04-15T04:08:27;54.20;40.20;67.89;;
70077;Laerm;57448;51.490;5.436;2023-04-15T04:10:29;53.86;40.49;68.42;;
70077;Laerm;57448;51.490;5.436;2023-04-15T04:12:30;55.76;40.70;66.24;;
70077;Laerm;57448;51.490;5.436;2023-04-15T04:14:31;55.57;41.77;68.79;;
70077;Laerm;57448;51.490;5.436;2023-04-15T04:16:33;55.91;40.26;67.39;;
70077;Laerm;57448;51.490;5.436;2023-04-15T04:18:34;55.06;40.29;68.58;;
70077;Laerm;57448;51.490;5.436;2023-04-15T04:20:36;55.58;41.87;69.59;;
70077;Laerm;57448;51.490;5.436;2023-04-15T04:22:37;56.31;41.74;70.13;;
70077;Laerm;57448;51.490;5.436;2023-04-15T04:24:41;55.96;41.48;68.28;;
70077;Laerm;57448;51.490;5.436;2023-04-15T04:26:42;54.50;40.26;69.64;;
70077;Laerm;57448;51.490;5.436;2023-04-15T04:28:43;50.85;39.93;61.64;;
70077;Laerm;57448;51.490;5.436;2023-04-15T04:30:45;55.74;40.65;77.90;;
70077;Laerm;57448;51.490;5.436;2023-04-15T04:32:46;62.64;41.59;78.83;;
70077;Laerm;57448;51.490;5.436;2023-04-15T04:34:47;55.13;41.21;69.60;;
70077;Laerm;57448;51.490;5.436;2023-04-15T04:36:49;53.76;41.16;69.55;;
70077;Laerm;57448;51.490;5.436;2023-04-15T04:38:50;59.58;40.73;75.76;;
70077;Laerm;57448;51.490;5.436;2023-04-15T04:40:53;48.72;41.07;71.28;;
70077;Laerm;57448;51.490;5.436;2023-04-15T04:42:55;51.53;41.30;60.30;;
70077;Laerm;57448;51.490;5.436;2023-04-15T04:44:56;51.23;42.16;60.34;;
70077;Laerm;57448;51.490;5.436;2023-04-15T04:46:57;49.56;40.90;66.42;;
70077;Laerm;57448;51.490;5.436;2023-04-15T04:48:59;52.80;41.61;74.13;;
70077;Laerm;57448;51.490;5.436;2023-04-15T04:51:00;48.51;41.74;70.50;;
70077;Laerm;57448;51.490;5.436;2023-04-15T04:53:02;48.06;41.18;59.77;;
70077;Laerm;57448;51.490;5.436;2023-04-15T04:55:04;47.90;41.38;65.15;;
70077;Laerm;57448;51.490;5.436;2023-04-15T04:57:06;50.55;39.77;67.03;;
70077;Laerm;57448;51.490;5.436;2023-04-15T04:59:08;53.84;40.70;67.68;;
70077;Laerm;57448;51.490;5.436;2023-04-15T05:01:09;52.50;41.28;63.59;;
70077;Laerm;57448;51.490;5.436;2023-04-15T05:03:10;53.49;40.07;73.35;;
70077;Laerm;57448;51.490;5.436;2023-04-15T05:05:12;65.11;40.18;77.56;;
70077;Laerm;57448;51.490;5.436;2023-04-15T05:07:13;46.60;41.63;58.31;;
70077;Laerm;57448;51.490;5.436;2023-04-15T05:09:15;46.08;40.19;59.81;;
70077;Laerm;57448;51.490;5.436;2023-04-15T05:11:16;60.79;40.34;71.92;;
70077;Laerm;57448;51.490;5.436;2023-04-15T05:13:19;46.37;40.81;62.88;;
70077;Laerm;57448;51.490;5.436;2023-04-15T05:15:20;48.29;40.16;64.76;;
70077;Laerm;57448;51.490;5.436;2023-04-15T05:17:22;47.09;40.07;72.98;;
70077;Laerm;57448;51.490;5.436;2023-04-15T05:19:23;45.01;40.63;57.21;;
70077;Laerm;57448;51.490;5.436;2023-04-15T05:21:25;62.59;40.08;75.93;;
70077;Laerm;57448;51.490;5.436;2023-04-15T05:23:26;57.47;42.44;72.91;;
70077;Laerm;57448;51.490;5.436;2023-04-15T05:25:28;55.63;42.15;74.83;;
70077;Laerm;57448;51.490;5.436;2023-04-15T05:27:29;47.77;41.80;58.31;;
70077;Laerm;57448;51.490;5.436;2023-04-15T05:29:32;46.30;39.98;56.88;;
70077;Laerm;57448;51.490;5.436;2023-04-15T05:31:34;48.18;41.55;68.15;;
70077;Laerm;57448;51.490;5.436;2023-04-15T05:33:35;63.59;41.04;76.52;;
70077;Laerm;57448;51.490;5.436;2023-04-15T05:35:37;49.16;42.96;62.94;;
70077;Laerm;57448;51.490;5.436;2023-04-15T05:37:38;65.18;42.13;76.78;;
70077;Laerm;57448;51.490;5.436;2023-04-15T05:39:39;63.57;43.23;74.18;;
70077;Laerm;57448;51.490;5.436;2023-04-15T05:41:41;46.72;41.87;61.56;;
70077;Laerm;57448;51.490;5.436;2023-04-15T05:43:42;64.56;42.49;77.42;;
70077;Laerm;57448;51.490;5.436;2023-04-15T05:45:45;47.97;42.76;60.88;;
70077;Laerm;57448;51.490;5.436;2023-04-15T05:47:46;47.43;41.98;57.07;;
70077;Laerm;57448;51.490;5.436;2023-04-15T05:49:49;47.52;42.44;57.24;;
70077;Laerm;57448;51.490;5.436;2023-04-15T05:51:50;46.47;42.16;56.62;;
70077;Laerm;57448;51.490;5.436;2023-04-15T05:53:52;47.54;42.25;58.15;;
70077;Laerm;57448;51.490;5.436;2023-04-15T05:55:53;46.77;42.52;57.73;;
70077;Laerm;57448;51.490;5.436;2023-04-15T05:57:54;48.97;40.47;58.06;;
70077;Laerm;57448;51.490;5.436;2023-04-15T05:59:56;47.48;41.58;56.48;;
70077;Laerm;57448;51.490;5.436;2023-04-15T06:01:59;48.47;42.47;66.28;;
70077;Laerm;57448;51.490;5.436;2023-04-15T06:04:00;47.73;42.04;58.68;;
70077;Laerm;57448;51.490;5.436;2023-04-15T06:06:02;52.21;42.66;70.18;;
70077;Laerm;57448;51.490;5.436;2023-04-15T06:08:03;48.25;43.48;64.33;;
70077;Laerm;57448;51.490;5.436;2023-04-15T06:10:05;64.68;43.62;77.72;;
70077;Laerm;57448;51.490;5.436;2023-04-15T06:12:07;48.93;43.32;58.06;;
70077;Laerm;57448;51.490;5.436;2023-04-15T06:14:11;52.24;42.21;72.63;;
70077;Laerm;57448;51.490;5.436;2023-04-15T06:16:12;46.72;43.24;56.04;;
70077;Laerm;57448;51.490;5.436;2023-04-15T06:18:15;47.33;43.20;58.34;;
70077;Laerm;57448;51.490;5.436;2023-04-15T06:20:16;46.54;42.36;56.17;;
70077;Laerm;57448;51.490;5.436;2023-04-15T06:22:18;47.09;42.96;54.47;;
70077;Laerm;57448;51.490;5.436;2023-04-15T06:24:19;47.37;42.77;57.72;;
70077;Laerm;57448;51.490;5.436;2023-04-15T06:26:20;45.44;42.03;54.24;;
70077;Laerm;57448;51.490;5.436;2023-04-15T06:28:22;46.21;42.22;54.74;;
70077;Laerm;57448;51.490;5.436;2023-04-15T06:30:23;46.23;42.53;59.51;;
70077;Laerm;57448;51.490;5.436;2023-04-15T06:32:24;49.08;42.39;67.40;;
70077;Laerm;57448;51.490;5.436;2023-04-15T06:34:27;58.40;42.45;73.10;;
70077;Laerm;57448;51.490;5.436;2023-04-15T06:36:29;49.39;42.67;71.99;;
70077;Laerm;57448;51.490;5.436;2023-04-15T06:38:31;47.22;40.81;66.96;;
70077;Laerm;57448;51.490;5.436;2023-04-15T06:40:32;46.70;43.20;58.43;;
70077;Laerm;57448;51.490;5.436;2023-04-15T06:42:34;45.53;42.07;54.83;;
70077;Laerm;57448;51.490;5.436;2023-04-15T06:44:35;48.55;42.48;64.75;;
70077;Laerm;57448;51.490;5.436;2023-04-15T06:46:37;46.49;41.27;63.18;;
70077;Laerm;57448;51.490;5.436;2023-04-15T06:48:38;49.53;41.45;67.99;;
70077;Laerm;57448;51.490;5.436;2023-04-15T06:50:41;47.00;42.34;59.99;;
70077;Laerm;57448;51.490;5.436;2023-04-15T06:52:43;53.49;42.27;68.84;;
70077;Laerm;57448;51.490;5.436;2023-04-15T06:54:44;63.67;43.50;78.21;;
70077;Laerm;57448;51.490;5.436;2023-04-15T06:56:46;48.19;41.54;65.29;;
70077;Laerm;57448;51.490;5.436;2023-04-15T06:58:47;45.86;41.15;57.90;;
70077;Laerm;57448;51.490;5.436;2023-04-15T07:00:49;47.85;41.52;67.19;;
70077;Laerm;57448;51.490;5.436;2023-04-15T07:02:51;52.93;41.05;68.96;;
70077;Laerm;57448;51.490;5.436;2023-04-15T07:04:52;64.58;41.14;76.41;;
70077;Laerm;57448;51.490;5.436;2023-04-15T07:06:55;53.01;39.30;74.04;;
70077;Laerm;57448;51.490;5.436;2023-04-15T07:08:57;62.98;40.55;77.32;;
70077;Laerm;57448;51.490;5.436;2023-04-15T07:10:58;52.92;42.18;70.44;;
70077;Laerm;57448;51.490;5.436;2023-04-15T07:13:00;61.03;42.79;74.84;;
70077;Laerm;57448;51.490;5.436;2023-04-15T07:15:01;51.66;40.82;67.30;;
70077;Laerm;57448;51.490;5.436;2023-04-15T07:17:03;52.81;39.97;71.34;;
70077;Laerm;57448;51.490;5.436;2023-04-15T07:19:04;49.79;40.47;66.28;;
70077;Laerm;57448;51.490;5.436;2023-04-15T07:21:06;45.67;41.19;57.54;;
70077;Laerm;57448;51.490;5.436;2023-04-15T07:23:09;45.68;40.84;59.25;;
70077;Laerm;57448;51.490;5.436;2023-04-15T07:25:11;46.77;40.33;59.27;;
70077;Laerm;57448;51.490;5.436;2023-04-15T07:27:12;44.64;40.47;60.19;;
70077;Laerm;57448;51.490;5.436;2023-04-15T07:29:13;45.33;41.00;60.10;;
70077;Laerm;57448;51.490;5.436;2023-04-15T07:31:15;46.69;40.55;69.05;;
70077;Laerm;57448;51.490;5.436;2023-04-15T07:33:16;48.23;40.03;66.39;;
70077;Laerm;57448;51.490;5.436;2023-04-15T07:35:18;63.66;42.48;80.17;;
70077;Laerm;57448;51.490;5.436;2023-04-15T07:37:20;47.07;40.43;57.49;;
70077;Laerm;57448;51.490;5.436;2023-04-15T07:39:23;50.90;40.02;70.15;;
70077;Laerm;57448;51.490;5.436;2023-04-15T07:41:24;47.43;40.59;60.83;;
70077;Laerm;57448;51.490;5.436;2023-04-15T07:43:26;48.61;40.60;64.09;;
70077;Laerm;57448;51.490;5.436;2023-04-15T07:45:28;65.92;41.12;81.48;;
70077;Laerm;57448;51.490;5.436;2023-04-15T07:47:29;52.70;42.10;70.99;;
70077;Laerm;57448;51.490;5.436;2023-04-15T07:49:31;47.75;40.91;64.07;;
70077;Laerm;57448;51.490;5.436;2023-04-15T07:51:32;47.37;41.26;65.03;;
70077;Laerm;57448;51.490;5.436;2023-04-15T07:53:34;49.03;39.20;70.46;;
70077;Laerm;57448;51.490;5.436;2023-04-15T07:55:36;49.74;40.00;68.19;;
70077;Laerm;57448;51.490;5.436;2023-04-15T07:57:38;52.44;40.26;71.48;;
70077;Laerm;57448;51.490;5.436;2023-04-15T07:59:39;52.00;40.11;69.52;;
70077;Laerm;57448;51.490;5.436;2023-04-15T08:01:41;49.93;41.78;66.75;;
70077;Laerm;57448;51.490;5.436;2023-04-15T08:03:43;53.62;39.80;70.88;;
70077;Laerm;57448;51.490;5.436;2023-04-15T08:05:44;52.36;41.36;69.55;;
70077;Laerm;57448;51.490;5.436;2023-04-15T08:07:46;50.87;41.01;76.36;;
70077;Laerm;57448;51.490;5.436;2023-04-15T08:09:47;53.56;41.79;68.19;;
70077;Laerm;57448;51.490;5.436;2023-04-15T08:11:50;54.22;41.88;68.20;;
70077;Laerm;57448;51.490;5.436;2023-04-15T08:13:51;51.87;42.45;68.87;;
70077;Laerm;57448;51.490;5.436;2023-04-15T08:18:12;63.41;42.09;79.57;;
70077;Laerm;57448;51.490;5.436;2023-04-15T08:20:13;49.06;42.14;60.53;;
70077;Laerm;57448;51.490;5.436;2023-04-15T08:22:14;50.60;40.97;64.10;;
70077;Laerm;57448;51.490;5.436;2023-04-15T08:24:16;48.42;41.44;67.62;;
70077;Laerm;57448;51.490;5.436;2023-04-15T08:26:18;45.47;41.28;57.74;;
70077;Laerm;57448;51.490;5.436;2023-04-15T08:28:21;45.92;41.47;56.74;;
70077;Laerm;57448;51.490;5.436;2023-04-15T08:30:22;62.77;41.47;77.32;;
70077;Laerm;57448;51.490;5.436;2023-04-15T08:32:24;50.05;41.65;63.71;;
70077;Laerm;57448;51.490;5.436;2023-04-15T08:34:25;45.55;41.23;60.44;;
70077;Laerm;57448;51.490;5.436;2023-04-15T08:36:27;46.56;42.05;61.43;;
70077;Laerm;57448;51.490;5.436;2023-04-15T08:38:28;52.06;41.75;68.44;;
70077;Laerm;57448;51.490;5.436;2023-04-15T08:40:33;52.52;41.29;67.24;;
70077;Laerm;57448;51.490;5.436;2023-04-15T08:42:36;53.07;41.97;67.64;;
70077;Laerm;57448;51.490;5.436;2023-04-15T08:44:40;52.46;40.34;67.40;;
70077;Laerm;57448;51.490;5.436;2023-04-15T08:46:43;64.55;42.09;85.90;;
70077;Laerm;57448;51.490;5.436;2023-04-15T08:48:44;48.76;40.81;68.83;;
70077;Laerm;57448;51.490;5.436;2023-04-15T08:50:47;46.97;40.99;67.44;;
70077;Laerm;57448;51.490;5.436;2023-04-15T08:52:49;45.83;41.78;54.61;;
70077;Laerm;57448;51.490;5.436;2023-04-15T08:54:54;50.59;42.45;65.63;;
70077;Laerm;57448;51.490;5.436;2023-04-15T08:56:56;50.18;43.81;62.81;;
70077;Laerm;57448;51.490;5.436;2023-04-15T08:58:58;65.07;43.69;80.33;;
70077;Laerm;57448;51.490;5.436;2023-04-15T09:01:01;55.68;41.02;74.75;;
70077;Laerm;57448;51.490;5.436;2023-04-15T09:03:03;52.00;41.18;73.07;;
70077;Laerm;57448;51.490;5.436;2023-04-15T09:05:05;46.83;42.06;67.36;;
70077;Laerm;57448;51.490;5.436;2023-04-15T09:07:06;45.26;41.75;54.96;;
70077;Laerm;57448;51.490;5.436;2023-04-15T09:09:08;45.91;41.53;55.13;;
70077;Laerm;57448;51.490;5.436;2023-04-15T09:11:09;62.02;43.14;83.78;;
70077;Laerm;57448;51.490;5.436;2023-04-15T09:13:11;59.34;43.31;76.54;;
70077;Laerm;57448;51.490;5.436;2023-04-15T09:15:12;46.83;41.87;59.95;;
70077;Laerm;57448;51.490;5.436;2023-04-15T09:17:18;49.60;42.83;67.58;;
70077;Laerm;57448;51.490;5.436;2023-04-15T09:19:20;48.75;42.07;67.37;;
70077;Laerm;57448;51.490;5.436;2023-04-15T09:21:22;49.33;41.99;75.19;;
70077;Laerm;57448;51.490;5.436;2023-04-15T09:23:23;64.51;44.72;79.60;;
70077;Laerm;57448;51.490;5.436;2023-04-15T09:25:25;49.52;44.35;61.10;;
70077;Laerm;57448;51.490;5.436;2023-04-15T09:27:27;46.40;42.82;54.88;;
70077;Laerm;57448;51.490;5.436;2023-04-15T09:29:28;46.72;42.51;56.87;;
70077;Laerm;57448;51.490;5.436;2023-04-15T09:31:30;48.01;42.16;60.88;;
70077;Laerm;57448;51.490;5.436;2023-04-15T09:33:33;46.36;42.46;54.58;;
70077;Laerm;57448;51.490;5.436;2023-04-15T09:35:35;50.50;41.43;72.94;;
70077;Laerm;57448;51.490;5.436;2023-04-15T09:37:36;56.36;42.60;73.22;;
70077;Laerm;57448;51.490;5.436;2023-04-15T09:39:44;47.53;42.79;62.39;;
70077;Laerm;57448;51.490;5.436;2023-04-15T09:41:46;45.87;41.25;53.54;;
70077;Laerm;57448;51.490;5.436;2023-04-15T09:43:47;48.18;43.07;69.24;;
70077;Laerm;57448;51.490;5.436;2023-04-15T09:45:49;45.67;41.80;54.79;;
70077;Laerm;57448;51.490;5.436;2023-04-15T09:47:50;52.48;41.04;71.91;;
70077;Laerm;57448;51.490;5.436;2023-04-15T09:49:55;51.33;42.89;66.06;;
70077;Laerm;57448;51.490;5.436;2023-04-15T09:51:58;50.12;43.91;61.73;;
70077;Laerm;57448;51.490;5.436;2023-04-15T09:54:00;51.70;43.67;66.43;;
70077;Laerm;57448;51.490;5.436;2023-04-15T09:56:01;53.07;41.64;70.64;;
70077;Laerm;57448;51.490;5.436;2023-04-15T09:58:07;50.57;42.11;67.64;;
70077;Laerm;57448;51.490;5.436;2023-04-15T10:00:09;53.14;42.27;69.17;;
70077;Laerm;57448;51.490;5.436;2023-04-15T10:02:10;55.15;41.65;69.67;;
70077;Laerm;57448;51.490;5.436;2023-04-15T10:04:12;54.91;43.89;71.76;;
70077;Laerm;57448;51.490;5.436;2023-04-15T10:06:16;52.59;44.47;77.63;;
70077;Laerm;57448;51.490;5.436;2023-04-15T10:08:18;52.37;44.51;65.68;;
70077;Laerm;57448;51.490;5.436;2023-04-15T10:10:20;51.27;45.46;63.15;;
70077;Laerm;57448;51.490;5.436;2023-04-15T10:12:22;63.93;45.30;80.52;;
70077;Laerm;57448;51.490;5.436;2023-04-15T10:14:23;50.29;44.11;67.59;;
70077;Laerm;57448;51.490;5.436;2023-04-15T10:16:26;46.89;42.80;53.46;;
70077;Laerm;57448;51.490;5.436;2023-04-15T10:18:28;48.01;44.26;63.49;;
70077;Laerm;57448;51.490;5.436;2023-04-15T10:20:32;49.41;45.04;53.31;;
70077;Laerm;57448;51.490;5.436;2023-04-15T10:22:35;50.33;46.11;60.30;;
70077;Laerm;57448;51.490;5.436;2023-04-15T10:24:37;48.56;44.78;60.61;;
70077;Laerm;57448;51.490;5.436;2023-04-15T10:26:39;48.96;45.40;53.76;;
70077;Laerm;57448;51.490;5.436;2023-04-15T10:28:40;48.50;43.32;64.70;;
70077;Laerm;57448;51.490;5.436;2023-04-15T10:30:42;48.47;43.54;60.86;;
70077;Laerm;57448;51.490;5.436;2023-04-15T10:32:43;53.92;43.03;76.91;;
70077;Laerm;57448;51.490;5.436;2023-04-15T10:34:45;54.47;45.95;71.33;;
70077;Laerm;57448;51.490;5.436;2023-04-15T10:36:47;52.53;44.69;70.50;;
70077;Laerm;57448;51.490;5.436;2023-04-15T10:38:50;47.49;43.69;55.26;;
70077;Laerm;57448;51.490;5.436;2023-04-15T10:40:51;52.10;40.53;69.75;;
70077;Laerm;57448;51.490;5.436;2023-04-15T10:42:53;49.47;42.39;61.37;;
70077;Laerm;57448;51.490;5.436;2023-04-15T10:44:55;48.15;40.70;67.46;;
70077;Laerm;57448;51.490;5.436;2023-04-15T10:46:57;47.94;41.53;66.65;;
70077;Laerm;57448;51.490;5.436;2023-04-15T10:48:58;47.67;43.14;67.11;;
70077;Laerm;57448;51.490;5.436;2023-04-15T10:51:06;48.04;42.88;65.01;;
70077;Laerm;57448;51.490;5.436;2023-04-15T10:53:09;50.67;44.59;67.14;;
70077;Laerm;57448;51.490;5.436;2023-04-15T10:55:13;51.38;45.01;68.05;;
70077;Laerm;57448;51.490;5.436;2023-04-15T10:57:16;49.07;44.34;68.28;;
70077;Laerm;57448;51.490;5.436;2023-04-15T10:59:21;47.78;43.94;60.77;;
70077;Laerm;57448;51.490;5.436;2023-04-15T11:01:22;47.66;43.62;57.89;;
70077;Laerm;57448;51.490;5.436;2023-04-15T11:03:45;62.11;44.19;79.65;;
70077;Laerm;57448;51.490;5.436;2023-04-15T11:05:50;53.65;44.67;71.14;;
70077;Laerm;57448;51.490;5.436;2023-04-15T11:07:53;58.04;42.27;79.16;;
70077;Laerm;57448;51.490;5.436;2023-04-15T11:09:55;55.60;42.93;71.62;;
70077;Laerm;57448;51.490;5.436;2023-04-15T11:12:06;54.10;43.38;70.31;;
70077;Laerm;57448;51.490;5.436;2023-04-15T11:14:13;54.14;42.21;69.06;;
70077;Laerm;57448;51.490;5.436;2023-04-15T11:16:15;54.28;43.36;67.77;;
70077;Laerm;57448;51.490;5.436;2023-04-15T11:18:16;54.21;43.94;69.95;;
70077;Laerm;57448;51.490;5.436;2023-04-15T11:20:19;50.27;44.89;65.75;;
70077;Laerm;57448;51.490;5.436;2023-04-15T11:22:21;64.62;45.50;82.72;;
70077;Laerm;57448;51.490;5.436;2023-04-15T11:24:23;50.27;44.20;63.73;;